createdAt,value
2022-08-07T00:00:19.691Z,20.85
2022-08-07T00:01:44.186Z,20.04
2022-08-07T00:02:39.659Z,24.99
2022-08-07T00:04:41.232Z,22.16
2022-08-07T00:05:46.396Z,19.37
2022-08-07T00:06:51.685Z,20.10
2022-08-07T00:08:00.189Z,19.76
2022-08-07T00:08:58.374Z,21.80
2022-08-07T00:10:25.467Z,23.04
2022-08-07T00:11:08.001Z,22.69
2022-08-07T00:12:16.390Z,23.55
2022-08-07T00:13:25.606Z,23.19
2022-08-07T00:14:21.918Z,20.11
2022-08-07T00:15:37.780Z,22.70
2022-08-07T00:16:31.171Z,21.04
2022-08-07T00:17:35.817Z,22.54
2022-08-07T00:18:38.584Z,23.23
2022-08-07T00:20:02.577Z,18.33
2022-08-07T00:20:45.587Z,19.62
2022-08-07T00:23:00.061Z,20.10
2022-08-07T00:24:02.996Z,20.56
2022-08-07T00:25:07.017Z,20.18
2022-08-07T00:26:18.835Z,22.83
2022-08-07T00:27:15.356Z,21.65
2022-08-07T00:28:18.304Z,21.43
2022-08-07T00:29:23.368Z,24.64
2022-08-07T00:30:28.648Z,19.06
2022-08-07T00:32:43.339Z,19.92
2022-08-07T00:33:47.980Z,22.62
2022-08-07T00:34:50.739Z,19.76
2022-08-07T00:35:55.224Z,20.52
2022-08-07T00:36:57.987Z,19.52
2022-08-07T00:38:02.007Z,24.01
2022-08-07T00:39:04.616Z,20.17
2022-08-07T00:40:10.783Z,24.19
2022-08-07T00:41:14.761Z,20.68
2022-08-07T00:42:17.448Z,19.32
2022-08-07T00:44:01.151Z,20.55
2022-08-07T00:44:24.792Z,19.76
2022-08-07T00:45:29.144Z,22.96
2022-08-07T00:46:34.227Z,21.36
2022-08-07T00:48:08.964Z,19.42
2022-08-07T00:48:43.179Z,19.81
2022-08-07T00:50:20.891Z,18.68
2022-08-07T00:50:51.190Z,22.01
2022-08-07T00:53:06.058Z,21.72
2022-08-07T00:54:10.550Z,23.61
2022-08-07T00:55:17.393Z,18.54
2022-08-07T00:56:19.755Z,22.24
2022-08-07T00:57:22.886Z,21.47
2022-08-07T00:58:25.471Z,22.05
2022-08-07T00:59:32.414Z,19.60
2022-08-07T01:00:32.539Z,21.21
2022-08-07T01:01:44.528Z,21.71
2022-08-07T01:02:39.668Z,20.88
2022-08-07T01:03:55.739Z,19.20
2022-08-07T01:04:46.766Z,18.45
2022-08-07T01:05:53.638Z,19.26
2022-08-07T01:06:55.555Z,22.19
2022-08-07T01:07:58.965Z,19.59
2022-08-07T01:09:01.655Z,20.51
2022-08-07T01:10:11.190Z,20.35
2022-08-07T01:12:04.462Z,21.02
2022-08-07T01:12:29.610Z,20.23
2022-08-07T01:13:21.020Z,19.27
2022-08-07T01:14:28.360Z,18.87
2022-08-07T01:15:35.789Z,19.54
2022-08-07T01:16:32.626Z,21.55
2022-08-07T01:17:35.231Z,20.05
2022-08-07T01:18:38.646Z,20.17
2022-08-07T01:22:08.842Z,17.75
2022-08-07T01:23:12.994Z,19.92
2022-08-07T01:24:14.156Z,21.86
2022-08-07T01:25:20.775Z,18.39
2022-08-07T01:26:23.324Z,18.86
2022-08-07T01:27:32.029Z,19.66
2022-08-07T01:28:32.186Z,20.61
2022-08-07T01:30:45.675Z,22.76
2022-08-07T01:31:50.811Z,20.07
2022-08-07T01:32:53.397Z,21.04
2022-08-07T01:33:57.603Z,20.86
2022-08-07T01:36:06.535Z,20.11
2022-08-07T01:37:04.487Z,20.90
2022-08-07T01:38:08.918Z,20.36
2022-08-07T01:39:13.473Z,18.09
2022-08-07T01:40:18.962Z,17.99
2022-08-07T01:41:26.325Z,18.55
2022-08-07T01:42:39.014Z,18.55
2022-08-07T01:43:34.714Z,21.18
2022-08-07T01:44:36.820Z,17.74
2022-08-07T01:45:41.762Z,18.17
2022-08-07T01:46:47.968Z,18.78
2022-08-07T01:48:20.040Z,22.20
2022-08-07T01:48:55.076Z,19.06
2022-08-07T01:49:57.695Z,17.97
2022-08-07T01:51:24.748Z,18.14
2022-08-07T01:52:07.667Z,17.99
2022-08-07T01:53:20.928Z,20.12
2022-08-07T01:55:29.064Z,18.62
2022-08-07T01:56:33.807Z,21.05
2022-08-07T01:58:05.437Z,18.79
2022-08-07T01:58:50.106Z,18.55
2022-08-07T01:59:56.838Z,17.54
2022-08-07T02:01:09.974Z,20.58
2022-08-07T02:02:06.817Z,18.49
2022-08-07T02:03:21.591Z,19.02
2022-08-07T02:04:18.115Z,17.46
2022-08-07T02:06:48.868Z,17.53
2022-08-07T02:07:52.001Z,20.35
2022-08-07T02:08:54.595Z,18.72
2022-08-07T02:09:58.701Z,20.18
2022-08-07T02:11:03.498Z,18.73
2022-08-07T02:12:06.530Z,18.37
2022-08-07T02:13:09.289Z,18.82
2022-08-07T02:14:14.558Z,18.05
2022-08-07T02:15:18.318Z,18.99
2022-08-07T02:16:28.424Z,20.29
2022-08-07T02:18:36.894Z,17.78
2022-08-07T02:20:05.551Z,18.24
2022-08-07T02:20:48.496Z,17.41
2022-08-07T02:21:56.269Z,19.46
2022-08-07T02:22:59.859Z,18.06
2022-08-07T02:24:03.283Z,19.96
2022-08-07T02:25:06.997Z,19.39
2022-08-07T02:26:32.854Z,17.96
2022-08-07T02:27:15.312Z,18.76
2022-08-07T02:28:24.548Z,19.89
2022-08-07T02:29:22.441Z,17.67
2022-08-07T02:30:25.874Z,17.89
2022-08-07T02:33:00.534Z,19.22
2022-08-07T02:34:03.950Z,19.08
2022-08-07T02:34:51.318Z,17.61
2022-08-07T02:36:28.564Z,17.84
2022-08-07T02:36:59.208Z,17.80
2022-08-07T02:38:02.429Z,19.57
2022-08-07T02:39:09.468Z,18.15
2022-08-07T02:40:29.659Z,19.75
2022-08-07T02:41:21.446Z,17.70
2022-08-07T02:42:19.843Z,19.65
2022-08-07T02:43:22.418Z,18.65
2022-08-07T02:44:26.893Z,18.89
2022-08-07T02:46:00.917Z,20.34
2022-08-07T02:46:34.717Z,18.25
2022-08-07T02:48:55.056Z,18.84
2022-08-07T02:49:56.066Z,18.95
2022-08-07T02:51:01.293Z,18.28
2022-08-07T02:52:04.036Z,19.31
2022-08-07T02:53:07.721Z,20.81
2022-08-07T02:54:13.181Z,19.32
2022-08-07T02:55:28.608Z,18.02
2022-08-07T02:56:28.265Z,18.17
2022-08-07T02:57:34.871Z,19.66
2022-08-07T02:58:39.695Z,17.42
2022-08-07T02:59:42.109Z,20.85
2022-08-07T03:00:46.743Z,18.54
2022-08-07T03:01:52.138Z,17.64
2022-08-07T03:02:55.459Z,19.11
2022-08-07T03:03:58.729Z,18.38
2022-08-07T03:05:04.100Z,18.21
2022-08-07T03:06:08.258Z,18.85
2022-08-07T03:07:12.671Z,19.15
2022-08-07T03:08:17.090Z,17.84
2022-08-07T03:09:43.945Z,18.92
2022-08-07T03:10:24.089Z,17.65
2022-08-07T03:11:28.278Z,19.24
2022-08-07T03:12:32.200Z,19.07
2022-08-07T03:13:39.227Z,20.94
2022-08-07T03:14:39.863Z,18.16
2022-08-07T03:15:56.696Z,18.59
2022-08-07T03:16:46.879Z,18.92
2022-08-07T03:17:53.047Z,18.95
2022-08-07T03:20:06.483Z,17.88
2022-08-07T03:21:11.370Z,18.39
2022-08-07T03:22:18.561Z,17.69
2022-08-07T03:23:19.156Z,20.78
2022-08-07T03:24:27.598Z,19.82
2022-08-07T03:25:32.311Z,17.61
2022-08-07T03:26:31.944Z,19.17
2022-08-07T03:27:59.061Z,19.17
2022-08-07T03:28:39.478Z,17.38
2022-08-07T03:29:49.663Z,17.83
2022-08-07T03:30:51.453Z,18.69
2022-08-07T03:31:54.802Z,17.79
2022-08-07T03:32:59.255Z,18.36
2022-08-07T03:34:03.133Z,18.55
2022-08-07T03:35:18.069Z,19.75
2022-08-07T03:36:12.704Z,17.99
2022-08-07T03:37:17.688Z,17.76
2022-08-07T03:38:29.460Z,19.72
2022-08-07T03:39:59.025Z,18.87
2022-08-07T03:40:30.999Z,18.66
2022-08-07T03:42:47.102Z,20.51
2022-08-07T03:43:56.903Z,18.18
2022-08-07T03:44:58.132Z,18.99
2022-08-07T03:46:00.068Z,19.68
2022-08-07T03:47:10.961Z,18.74
2022-08-07T03:48:11.490Z,18.10
2022-08-07T03:49:14.570Z,19.56
2022-08-07T03:50:19.673Z,19.17
2022-08-07T03:51:23.921Z,19.90
2022-08-07T03:52:28.333Z,19.11
2022-08-07T03:54:01.945Z,22.05
2022-08-07T03:54:54.346Z,18.76
2022-08-07T03:55:58.500Z,18.85
2022-08-07T03:57:03.451Z,19.34
2022-08-07T03:58:17.978Z,21.61
2022-08-07T03:59:07.822Z,18.17
2022-08-07T04:00:03.867Z,19.29
2022-08-07T04:01:07.572Z,18.39
2022-08-07T04:02:10.254Z,19.01
2022-08-07T04:03:12.882Z,19.18
2022-08-07T04:05:39.248Z,18.48
2022-08-07T04:06:37.811Z,18.96
2022-08-07T04:07:41.734Z,19.02
2022-08-07T04:08:40.105Z,19.94
2022-08-07T04:09:45.563Z,16.33
2022-08-07T04:10:54.616Z,17.34
2022-08-07T04:12:27.851Z,17.37
2022-08-07T04:12:56.550Z,18.86
2022-08-07T04:14:09.240Z,17.44
2022-08-07T04:15:07.634Z,18.95
2022-08-07T04:16:12.318Z,23.01
2022-08-07T04:18:57.945Z,18.33
2022-08-07T04:19:51.086Z,18.16
2022-08-07T04:21:48.073Z,19.49
2022-08-07T04:22:53.775Z,17.72
2022-08-07T04:24:07.610Z,18.55
2022-08-07T04:25:02.078Z,18.82
2022-08-07T04:26:05.846Z,20.56
2022-08-07T04:27:20.380Z,18.38
2022-08-07T04:28:14.707Z,17.69
2022-08-07T04:29:17.386Z,20.31
2022-08-07T04:30:39.603Z,19.05
2022-08-07T04:32:02.598Z,20.54
2022-08-07T04:32:34.307Z,18.49
2022-08-07T04:34:47.566Z,18.67
2022-08-07T04:35:53.901Z,18.33
2022-08-07T04:36:56.306Z,17.14
2022-08-07T04:38:04.647Z,19.13
2022-08-07T04:39:03.749Z,19.23
2022-08-07T04:40:07.107Z,16.42
2022-08-07T04:41:10.725Z,15.97
2022-08-07T04:42:15.486Z,15.65
2022-08-07T04:43:19.261Z,15.99
2022-08-07T04:44:23.078Z,16.32
2022-08-07T04:45:57.384Z,17.77
2022-08-07T04:47:03.817Z,16.55
2022-08-07T04:48:03.553Z,17.33
2022-08-07T04:49:14.884Z,15.34
2022-08-07T04:50:13.597Z,16.29
2022-08-07T04:52:32.127Z,16.66
2022-08-07T04:55:01.458Z,15.66
2022-08-07T04:58:10.699Z,19.21
2022-08-07T04:59:09.182Z,17.19
2022-08-07T05:00:11.564Z,16.67
2022-08-07T05:00:50.928Z,16.62
2022-08-07T05:01:58.560Z,16.18
2022-08-07T05:04:17.967Z,14.20
2022-08-07T05:05:52.983Z,15.72
2022-08-07T05:06:43.637Z,14.51
2022-08-07T05:07:51.758Z,14.37
2022-08-07T05:09:01.654Z,13.45
2022-08-07T05:10:04.539Z,12.19
2022-08-07T05:11:19.524Z,14.33
2022-08-07T05:12:27.430Z,13.83
2022-08-07T05:14:53.825Z,15.28
2022-08-07T05:14:56.172Z,13.17
2022-08-07T05:15:43.177Z,12.71
2022-08-07T05:16:52.617Z,15.25
2022-08-07T05:17:57.994Z,17.18
2022-08-07T05:19:04.207Z,12.85
2022-08-07T05:20:09.956Z,12.91
2022-08-07T05:21:14.821Z,12.23
2022-08-07T05:22:26.521Z,15.44
2022-08-07T05:24:39.439Z,11.62
2022-08-07T05:26:11.579Z,11.80
2022-08-07T05:26:47.204Z,11.04
2022-08-07T05:28:16.178Z,10.98
2022-08-07T05:28:55.721Z,12.90
2022-08-07T05:29:58.416Z,10.85
2022-08-07T05:31:01.853Z,11.79
2022-08-07T05:32:06.734Z,13.63
2022-08-07T05:33:12.358Z,11.24
2022-08-07T05:34:16.772Z,11.12
2022-08-07T05:35:33.122Z,10.79
2022-08-07T05:36:32.145Z,11.87
2022-08-07T05:37:30.271Z,9.69
2022-08-07T05:39:00.108Z,9.49
2022-08-07T05:40:06.696Z,12.28
2022-08-07T05:40:50.661Z,8.88
2022-08-07T05:42:02.809Z,13.03
2022-08-07T05:42:56.025Z,8.16
2022-08-07T05:44:11.920Z,9.41
2022-08-07T05:46:18.917Z,8.41
2022-08-07T05:47:38.679Z,7.76
2022-08-07T05:48:26.718Z,8.84
2022-08-07T05:49:40.844Z,8.47
2022-08-07T05:50:34.118Z,9.54
2022-08-07T05:51:40.085Z,11.99
2022-08-07T05:52:42.953Z,9.46
2022-08-07T05:54:09.475Z,11.03
2022-08-07T05:54:55.632Z,11.61
2022-08-07T05:56:02.998Z,9.61
2022-08-07T05:56:59.536Z,9.14
2022-08-07T05:58:02.657Z,9.10
2022-08-07T05:59:07.632Z,9.29
2022-08-07T06:00:16.675Z,9.04
2022-08-07T06:01:18.006Z,10.08
2022-08-07T06:02:28.443Z,9.75
2022-08-07T06:03:25.605Z,9.99
2022-08-07T06:04:30.488Z,9.01
2022-08-07T06:05:33.203Z,12.65
2022-08-07T06:06:36.845Z,9.69
2022-08-07T06:08:14.571Z,11.11
2022-08-07T06:08:46.689Z,9.13
2022-08-07T06:10:05.342Z,10.91
2022-08-07T06:10:55.868Z,13.53
2022-08-07T06:12:00.583Z,11.70
2022-08-07T06:14:21.417Z,10.26
2022-08-07T06:15:19.952Z,11.06
2022-08-07T06:16:22.732Z,11.68
2022-08-07T06:17:32.007Z,10.69
2022-08-07T06:18:31.626Z,12.16
2022-08-07T06:19:52.353Z,10.67
2022-08-07T06:22:15.984Z,11.54
2022-08-07T06:23:02.378Z,11.22
2022-08-07T06:24:52.338Z,11.12
2022-08-07T06:25:02.279Z,11.13
2022-08-07T06:26:06.114Z,10.09
2022-08-07T06:27:09.769Z,13.46
2022-08-07T06:28:14.885Z,10.01
2022-08-07T06:29:17.746Z,12.41
2022-08-07T06:30:24.200Z,10.34
2022-08-07T06:31:38.521Z,11.18
2022-08-07T06:32:32.690Z,10.60
2022-08-07T06:33:35.062Z,9.74
2022-08-07T06:34:40.671Z,9.84
2022-08-07T06:36:52.579Z,11.19
2022-08-07T06:37:55.736Z,9.61
2022-08-07T06:38:59.005Z,10.80
2022-08-07T06:40:17.916Z,10.00
2022-08-07T06:41:09.744Z,11.91
2022-08-07T06:42:17.408Z,10.03
2022-08-07T06:43:21.443Z,10.57
2022-08-07T06:44:24.883Z,9.51
2022-08-07T06:45:27.904Z,10.78
2022-08-07T06:47:57.429Z,11.54
2022-08-07T06:48:44.935Z,11.39
2022-08-07T06:49:51.689Z,10.99
2022-08-07T06:50:53.574Z,10.26
2022-08-07T06:52:02.825Z,10.14
2022-08-07T06:53:04.242Z,10.48
2022-08-07T06:55:29.150Z,10.85
2022-08-07T06:56:25.748Z,9.37
2022-08-07T06:57:39.636Z,9.86
2022-08-07T06:58:35.010Z,10.20
2022-08-07T07:00:12.996Z,12.29
2022-08-07T07:00:46.230Z,10.09
2022-08-07T07:01:51.116Z,12.04
2022-08-07T07:02:57.685Z,11.32
2022-08-07T07:05:12.874Z,11.46
2022-08-07T07:06:23.888Z,9.88
2022-08-07T07:07:59.646Z,12.53
2022-08-07T07:08:26.416Z,10.44
2022-08-07T07:09:31.279Z,10.09
2022-08-07T07:10:34.717Z,11.59
2022-08-07T07:12:08.643Z,10.83
2022-08-07T07:12:48.875Z,11.42
2022-08-07T07:13:58.618Z,11.87
2022-08-07T07:15:23.883Z,12.15
2022-08-07T07:16:21.541Z,9.42
2022-08-07T07:17:28.907Z,10.65
2022-08-07T07:18:48.212Z,12.76
2022-08-07T07:19:56.893Z,8.92
2022-08-07T07:20:53.038Z,12.06
2022-08-07T07:22:11.574Z,12.81
2022-08-07T07:24:09.176Z,10.50
2022-08-07T07:24:11.574Z,11.59
2022-08-07T07:25:13.960Z,10.27
2022-08-07T07:26:34.279Z,11.49
2022-08-07T07:27:21.133Z,13.39
2022-08-07T07:28:29.839Z,12.45
2022-08-07T07:29:56.128Z,12.09
2022-08-07T07:30:38.398Z,10.34
2022-08-07T07:32:52.775Z,12.62
2022-08-07T07:33:57.861Z,12.43
2022-08-07T07:35:03.891Z,11.52
2022-08-07T07:36:13.232Z,13.49
2022-08-07T07:37:21.572Z,11.24
2022-08-07T07:38:15.396Z,11.37
2022-08-07T07:39:18.142Z,10.37
2022-08-07T07:40:21.378Z,11.78
2022-08-07T07:41:30.889Z,13.37
2022-08-07T07:42:32.875Z,13.74
2022-08-07T07:44:14.766Z,15.60
2022-08-07T07:44:41.363Z,11.93
2022-08-07T07:46:37.964Z,10.48
2022-08-07T07:46:55.718Z,8.38
2022-08-07T07:49:09.171Z,7.83
2022-08-07T07:50:33.522Z,10.98
2022-08-07T07:52:47.063Z,11.08
2022-08-07T07:53:51.889Z,11.05
2022-08-07T07:54:53.814Z,8.72
2022-08-07T07:56:00.827Z,7.28
2022-08-07T07:57:02.972Z,8.82
2022-08-07T07:58:05.751Z,11.35
2022-08-07T07:59:08.336Z,9.00
2022-08-07T08:00:12.437Z,8.18
2022-08-07T08:02:01.962Z,7.83
2022-08-07T08:02:22.581Z,7.69
2022-08-07T08:04:09.665Z,10.89
2022-08-07T08:04:30.342Z,10.77
2022-08-07T08:05:53.636Z,8.39
2022-08-07T08:06:40.063Z,10.73
2022-08-07T08:07:59.923Z,8.39
2022-08-07T08:08:48.987Z,8.76
2022-08-07T08:11:03.967Z,8.13
2022-08-07T08:12:06.783Z,9.63
2022-08-07T08:13:10.568Z,7.25
2022-08-07T08:14:13.774Z,7.68
2022-08-07T08:15:18.397Z,6.52
2022-08-07T08:16:30.016Z,10.38
2022-08-07T08:18:17.504Z,8.99
2022-08-07T08:18:37.204Z,6.23
2022-08-07T08:20:17.596Z,7.95
2022-08-07T08:20:44.329Z,8.96
2022-08-07T08:23:00.276Z,8.54
2022-08-07T08:24:03.880Z,7.89
2022-08-07T08:25:24.915Z,6.19
2022-08-07T08:26:12.857Z,7.54
2022-08-07T08:27:20.471Z,8.05
2022-08-07T08:28:23.998Z,7.35
2022-08-07T08:29:26.547Z,9.39
2022-08-07T08:30:34.847Z,9.09
2022-08-07T08:32:16.843Z,10.42
2022-08-07T08:32:48.447Z,6.41
2022-08-07T08:33:55.509Z,7.08
2022-08-07T08:34:52.458Z,7.33
2022-08-07T08:35:55.207Z,7.21
2022-08-07T08:36:58.317Z,8.79
2022-08-07T08:38:03.158Z,8.36
2022-08-07T08:39:06.946Z,8.78
2022-08-07T08:40:12.326Z,7.44
2022-08-07T08:41:18.184Z,8.44
2022-08-07T08:42:26.366Z,8.29
2022-08-07T08:43:42.482Z,8.33
2022-08-07T08:44:58.065Z,10.25
2022-08-07T08:46:14.755Z,7.69
2022-08-07T08:47:28.389Z,8.91
2022-08-07T08:48:38.531Z,8.42
2022-08-07T08:50:02.677Z,9.99
2022-08-07T08:50:52.110Z,8.87
2022-08-07T08:52:14.513Z,7.99
2022-08-07T08:53:08.764Z,8.01
2022-08-07T08:55:55.398Z,8.12
2022-08-07T08:56:54.982Z,7.12
2022-08-07T08:57:59.650Z,7.39
2022-08-07T08:59:12.846Z,8.66
2022-08-07T09:00:13.760Z,9.59
2022-08-07T09:01:18.600Z,7.24
2022-08-07T09:02:41.770Z,6.77
2022-08-07T09:03:49.771Z,8.01
2022-08-07T09:05:09.767Z,9.57
2022-08-07T09:07:28.696Z,7.33
2022-08-07T09:08:47.098Z,8.14
2022-08-07T09:11:14.016Z,9.32
2022-08-07T09:12:29.968Z,7.06
2022-08-07T09:13:37.641Z,6.86
2022-08-07T09:14:58.757Z,8.82
2022-08-07T09:16:23.932Z,9.49
2022-08-07T09:17:22.867Z,16.21
2022-08-07T09:18:37.499Z,7.44
2022-08-07T09:20:00.986Z,6.40
2022-08-07T09:21:58.173Z,8.16
2022-08-07T09:24:32.504Z,9.84
2022-08-07T09:24:35.109Z,5.87
2022-08-07T09:25:59.109Z,8.52
2022-08-07T09:27:09.137Z,8.15
2022-08-07T09:30:04.596Z,9.96
2022-08-07T09:30:06.113Z,7.15
2022-08-07T09:30:46.278Z,6.52
2022-08-07T09:31:57.699Z,10.46
2022-08-07T09:33:05.352Z,7.13
2022-08-07T09:34:14.543Z,5.43
2022-08-07T09:36:04.341Z,8.39
2022-08-07T09:38:04.074Z,9.05
2022-08-07T09:40:31.789Z,8.03
2022-08-07T09:42:57.876Z,9.89
2022-08-07T09:47:25.529Z,9.29
2022-08-07T09:48:45.362Z,6.86
2022-08-07T09:50:02.359Z,9.01
2022-08-07T09:51:25.936Z,8.32
2022-08-07T09:52:34.545Z,6.07
2022-08-07T09:53:27.274Z,7.14
2022-08-07T09:56:04.854Z,6.14
2022-08-07T09:57:13.067Z,8.26
2022-08-07T09:58:36.833Z,7.86
2022-08-07T09:59:46.099Z,8.87
2022-08-07T10:01:08.493Z,9.04
2022-08-07T10:04:05.128Z,8.27
2022-08-07T10:05:12.744Z,9.40
2022-08-07T10:06:24.577Z,9.79
2022-08-07T10:07:52.662Z,12.33
2022-08-07T10:09:05.142Z,7.25
2022-08-07T10:10:21.304Z,11.88
2022-08-07T10:12:00.056Z,14.27
2022-08-07T10:12:52.780Z,12.79
2022-08-07T10:14:04.995Z,10.74
2022-08-07T10:15:15.457Z,10.57
2022-08-07T10:16:19.255Z,12.55
2022-08-07T10:18:01.734Z,9.71
2022-08-07T10:18:49.317Z,9.55
2022-08-07T10:20:14.344Z,8.49
2022-08-07T10:22:12.330Z,12.15
2022-08-07T10:23:04.423Z,12.69
2022-08-07T10:24:28.039Z,9.43
2022-08-07T10:25:52.965Z,8.44
2022-08-07T10:26:54.994Z,11.31
2022-08-07T10:29:19.691Z,9.72
2022-08-07T10:30:27.845Z,9.74
2022-08-07T10:31:51.231Z,7.73
2022-08-07T10:33:15.091Z,8.57
2022-08-07T10:34:32.437Z,10.74
2022-08-07T10:35:57.096Z,8.92
2022-08-07T10:37:12.463Z,10.25
2022-08-07T10:39:42.244Z,10.65
2022-08-07T10:40:33.896Z,10.29
2022-08-07T10:41:52.119Z,9.11
2022-08-07T10:43:00.190Z,12.17
2022-08-07T10:44:07.798Z,13.04
2022-08-07T10:45:57.384Z,10.86
2022-08-07T10:50:35.388Z,9.27
2022-08-07T10:52:12.610Z,8.11
2022-08-07T10:53:08.861Z,8.35
2022-08-07T10:54:13.334Z,7.61
2022-08-07T10:55:38.573Z,7.71
2022-08-07T10:56:57.589Z,8.80
2022-08-07T10:58:04.624Z,8.22
2022-08-07T10:59:22.096Z,10.23
2022-08-07T11:00:36.802Z,8.68
2022-08-07T11:02:48.990Z,14.10
2022-08-07T11:05:13.181Z,9.37
2022-08-07T11:06:22.126Z,10.78
2022-08-07T11:07:59.064Z,7.80
2022-08-07T11:10:08.671Z,9.78
2022-08-07T11:11:10.740Z,10.60
2022-08-07T11:12:18.922Z,14.83
2022-08-07T11:14:42.291Z,10.54
2022-08-07T11:14:45.970Z,13.87
2022-08-07T11:15:39.566Z,15.66
2022-08-07T11:16:49.349Z,14.25
2022-08-07T11:19:21.612Z,14.69
2022-08-07T11:20:24.509Z,16.51
2022-08-07T11:22:50.983Z,13.32
2022-08-07T11:24:03.458Z,18.30
2022-08-07T11:25:11.394Z,17.47
2022-08-07T11:26:19.453Z,13.94
2022-08-07T11:27:33.424Z,14.92
2022-08-07T11:30:17.663Z,15.86
2022-08-07T11:32:43.183Z,13.06
2022-08-07T11:34:00.232Z,11.53
2022-08-07T11:35:04.199Z,11.00
2022-08-07T11:36:20.554Z,14.81
2022-08-07T11:37:57.257Z,16.75
2022-08-07T11:38:38.842Z,15.53
2022-08-07T11:40:03.738Z,18.25
2022-08-07T11:42:29.762Z,24.44
2022-08-07T11:43:54.958Z,19.99
2022-08-07T11:44:52.523Z,14.59
2022-08-07T11:47:00.752Z,14.84
2022-08-07T11:48:18.014Z,16.29
2022-08-07T11:49:51.088Z,16.70
2022-08-07T11:50:34.770Z,14.72
2022-08-07T11:51:54.963Z,14.09
2022-08-07T11:53:05.253Z,14.28
2022-08-07T11:54:13.311Z,15.69
2022-08-07T11:56:15.666Z,13.19
2022-08-07T11:56:58.390Z,13.56
2022-08-07T12:00:12.325Z,15.01
2022-08-07T12:02:02.589Z,13.77
2022-08-07T12:04:52.692Z,12.60
2022-08-07T12:06:37.056Z,12.28
2022-08-07T12:07:27.422Z,10.85
2022-08-07T12:08:34.855Z,14.38
2022-08-07T12:09:37.763Z,13.70
2022-08-07T12:10:42.152Z,13.79
2022-08-07T12:12:10.775Z,14.53
2022-08-07T12:12:53.959Z,12.82
2022-08-07T12:15:46.637Z,12.88
2022-08-07T12:16:44.420Z,11.87
2022-08-07T12:17:59.811Z,14.62
2022-08-07T12:20:38.165Z,15.56
2022-08-07T12:22:37.179Z,10.88
2022-08-07T12:24:06.047Z,11.05
2022-08-07T12:25:01.915Z,11.40
2022-08-07T12:27:16.327Z,12.28
2022-08-07T12:29:38.840Z,12.56
2022-08-07T12:30:37.828Z,14.09
2022-08-07T12:32:02.071Z,12.68
2022-08-07T12:33:09.288Z,13.57
2022-08-07T12:34:11.039Z,12.61
2022-08-07T12:35:14.639Z,12.20
2022-08-07T12:36:19.515Z,12.77
2022-08-07T12:37:28.193Z,12.59
2022-08-07T12:38:42.568Z,11.74
2022-08-07T12:39:43.740Z,11.44
2022-08-07T12:40:48.933Z,14.32
2022-08-07T12:41:51.567Z,12.36
2022-08-07T12:42:57.217Z,15.50
2022-08-07T12:44:03.921Z,14.11
2022-08-07T12:45:07.040Z,14.65
2022-08-07T12:46:15.868Z,14.45
2022-08-07T12:48:51.786Z,13.60
2022-08-07T12:52:36.397Z,11.14
2022-08-07T12:54:23.799Z,12.18
2022-08-07T12:55:05.650Z,12.29
2022-08-07T12:56:10.506Z,11.92
2022-08-07T12:57:19.818Z,11.20
2022-08-07T12:58:28.255Z,12.05
2022-08-07T12:59:33.161Z,12.66
2022-08-07T13:00:50.293Z,13.62
2022-08-07T13:01:51.596Z,11.75
2022-08-07T13:03:27.445Z,13.91
2022-08-07T13:06:04.546Z,12.48
2022-08-07T13:07:02.265Z,12.70
2022-08-07T13:08:18.839Z,12.51
2022-08-07T13:10:20.079Z,11.41
2022-08-07T13:10:51.671Z,13.34
2022-08-07T13:12:02.810Z,15.82
2022-08-07T13:13:02.136Z,14.43
2022-08-07T13:15:29.517Z,16.19
2022-08-07T13:16:50.969Z,14.34
2022-08-07T13:17:59.561Z,13.02
2022-08-07T13:19:04.599Z,13.91
2022-08-07T13:20:11.521Z,12.69
2022-08-07T13:21:51.251Z,11.53
2022-08-07T13:22:52.477Z,13.99
2022-08-07T13:25:07.481Z,12.22
2022-08-07T13:26:20.554Z,12.53
2022-08-07T13:28:41.687Z,13.03
2022-08-07T13:29:48.174Z,13.14
2022-08-07T13:31:01.640Z,14.21
2022-08-07T13:32:06.290Z,12.79
2022-08-07T13:34:14.777Z,13.27
2022-08-07T13:36:00.289Z,13.56
2022-08-07T13:36:43.237Z,13.79
2022-08-07T13:37:55.380Z,15.46
2022-08-07T13:40:33.990Z,14.98
2022-08-07T13:40:49.701Z,14.95
2022-08-07T13:41:54.654Z,13.91
2022-08-07T13:43:00.457Z,12.88
2022-08-07T13:44:05.166Z,15.17
2022-08-07T13:45:20.672Z,14.40
2022-08-07T13:46:22.046Z,16.76
2022-08-07T13:47:25.187Z,16.00
2022-08-07T13:48:34.175Z,14.45
2022-08-07T13:50:33.063Z,14.47
2022-08-07T13:50:44.781Z,13.41
2022-08-07T13:52:22.745Z,12.05
2022-08-07T13:52:47.937Z,14.38
2022-08-07T13:54:00.129Z,12.92
2022-08-07T13:54:58.017Z,12.92
2022-08-07T13:56:03.084Z,11.96
2022-08-07T13:57:23.877Z,13.76
2022-08-07T13:58:28.074Z,13.68
2022-08-07T13:59:28.779Z,15.15
2022-08-07T14:00:50.600Z,12.90
2022-08-07T14:01:51.533Z,12.53
2022-08-07T14:02:54.117Z,13.77
2022-08-07T14:04:07.755Z,12.94
2022-08-07T14:05:03.150Z,14.11
2022-08-07T14:06:08.477Z,11.16
2022-08-07T14:07:11.423Z,13.34
2022-08-07T14:08:15.797Z,10.99
2022-08-07T14:10:12.265Z,13.43
2022-08-07T14:10:41.962Z,11.24
2022-08-07T14:11:53.516Z,12.73
2022-08-07T14:12:56.603Z,11.07
2022-08-07T14:14:06.892Z,12.03
2022-08-07T14:16:31.324Z,12.73
2022-08-07T14:18:15.711Z,11.44
2022-08-07T14:18:45.553Z,12.11
2022-08-07T14:20:42.772Z,11.64
2022-08-07T14:21:21.026Z,12.89
2022-08-07T14:22:33.924Z,12.79
2022-08-07T14:23:31.490Z,13.10
2022-08-07T14:24:28.445Z,12.72
2022-08-07T14:25:39.502Z,15.96
2022-08-07T14:28:20.932Z,12.58
2022-08-07T14:29:10.513Z,13.73
2022-08-07T14:30:12.141Z,12.91
2022-08-07T14:31:14.608Z,12.17
2022-08-07T14:32:19.449Z,13.48
2022-08-07T14:33:23.516Z,11.34
2022-08-07T14:34:29.934Z,11.61
2022-08-07T14:35:45.266Z,11.02
2022-08-07T14:36:39.225Z,11.19
2022-08-07T14:37:43.705Z,11.92
2022-08-07T14:38:50.407Z,8.92
2022-08-07T14:40:18.098Z,12.19
2022-08-07T14:42:20.758Z,12.02
2022-08-07T14:43:58.617Z,10.95
2022-08-07T14:44:24.328Z,8.97
2022-08-07T14:46:33.787Z,10.80
2022-08-07T14:47:36.627Z,13.18
2022-08-07T14:48:39.749Z,14.76
2022-08-07T14:49:58.132Z,13.87
2022-08-07T14:50:48.697Z,11.30
2022-08-07T14:53:08.007Z,9.74
2022-08-07T14:54:34.494Z,9.46
2022-08-07T14:55:17.483Z,10.24
2022-08-07T14:56:29.594Z,9.30
2022-08-07T14:57:54.885Z,10.24
2022-08-07T14:58:34.010Z,11.91
2022-08-07T15:00:05.499Z,9.33
2022-08-07T15:00:44.383Z,11.20
2022-08-07T15:01:51.432Z,11.16
2022-08-07T15:02:56.896Z,11.72
2022-08-07T15:04:05.372Z,12.11
2022-08-07T15:05:20.532Z,11.47
2022-08-07T15:06:11.142Z,10.37
2022-08-07T15:07:21.474Z,10.80
2022-08-07T15:08:32.294Z,10.88
2022-08-07T15:09:31.295Z,10.23
2022-08-07T15:10:36.692Z,11.28
2022-08-07T15:11:50.771Z,10.83
2022-08-07T15:12:54.661Z,11.29
2022-08-07T15:13:53.380Z,12.07
2022-08-07T15:16:14.648Z,9.85
2022-08-07T15:17:17.702Z,10.21
2022-08-07T15:18:28.644Z,12.63
2022-08-07T15:20:31.010Z,12.56
2022-08-07T15:20:54.638Z,10.64
2022-08-07T15:22:53.768Z,10.50
2022-08-07T15:25:13.968Z,10.08
2022-08-07T15:25:15.977Z,8.43
2022-08-07T15:26:03.721Z,7.88
2022-08-07T15:27:10.853Z,7.56
2022-08-07T15:30:33.478Z,8.28
2022-08-07T15:32:01.623Z,9.21
2022-08-07T15:33:01.474Z,8.07
2022-08-07T15:33:47.810Z,8.64
2022-08-07T15:34:57.202Z,6.38
2022-08-07T15:36:01.652Z,7.56
2022-08-07T15:37:06.699Z,7.32
2022-08-07T15:38:29.970Z,9.22
2022-08-07T15:39:14.303Z,7.97
2022-08-07T15:40:34.573Z,7.26
2022-08-07T15:42:47.879Z,7.41
2022-08-07T15:44:02.872Z,7.93
2022-08-07T15:52:53.554Z,8.36
2022-08-07T15:53:59.844Z,10.61
2022-08-07T15:55:08.998Z,9.74
2022-08-07T15:56:11.233Z,8.07
2022-08-07T15:57:27.893Z,7.44
2022-08-07T15:58:22.035Z,9.36
2022-08-07T15:59:39.872Z,10.35
2022-08-07T16:00:35.761Z,9.68
2022-08-07T16:01:41.088Z,10.81
2022-08-07T16:02:46.544Z,13.04
2022-08-07T16:03:58.220Z,12.88
2022-08-07T16:04:55.292Z,7.78
2022-08-07T16:05:59.324Z,8.36
2022-08-07T16:07:05.262Z,9.02
2022-08-07T16:09:43.779Z,8.55
2022-08-07T16:10:48.737Z,9.52
2022-08-07T16:11:56.893Z,11.54
2022-08-07T16:13:05.466Z,10.97
2022-08-07T16:14:11.064Z,10.37
2022-08-07T16:15:55.578Z,9.10
2022-08-07T16:16:50.105Z,7.87
2022-08-07T16:18:01.719Z,8.42
2022-08-07T16:19:11.298Z,9.48
2022-08-07T16:20:33.162Z,7.45
2022-08-07T16:22:03.317Z,7.73
2022-08-07T16:23:09.819Z,8.77
2022-08-07T16:24:34.286Z,10.34
2022-08-07T16:25:54.892Z,7.88
2022-08-07T16:26:58.901Z,7.08